sensor_id;sensor_type;location;lat;lon;timestamp;pressure;altitude;pressure_sealevel;temperature;humidity
77013;BME280;67260;53.130;17.982;2024-03-02T00:00:52;100698.41;;;7.39;86.72
77013;BME280;67260;53.130;17.982;2024-03-02T00:03:33;100695.89;;;7.38;86.92
77013;BME280;67260;53.130;17.982;2024-03-02T00:06:25;100690.45;;;7.35;86.90
77013;BME280;67260;53.130;17.982;2024-03-02T00:09:00;100687.54;;;7.33;86.94
77013;BME280;67260;53.130;17.982;2024-03-02T00:11:37;100687.55;;;7.31;87.22
77013;BME280;67260;53.130;17.982;2024-03-02T00:14:09;100687.70;;;7.30;86.97
77013;BME280;67260;53.130;17.982;2024-03-02T00:17:00;100689.32;;;7.29;86.78
77013;BME280;67260;53.130;17.982;2024-03-02T00:41:37;100683.13;;;7.19;88.05
77013;BME280;67260;53.130;17.982;2024-03-02T00:44:43;100685.00;;;7.15;88.18
77013;BME280;67260;53.130;17.982;2024-03-02T00:47:14;100688.78;;;7.13;88.30
77013;BME280;67260;53.130;17.982;2024-03-02T00:49:40;100684.63;;;7.11;88.50
77013;BME280;67260;53.130;17.982;2024-03-02T00:52:10;100678.99;;;7.09;88.51
77013;BME280;67260;53.130;17.982;2024-03-02T00:54:45;100683.71;;;7.07;88.64
77013;BME280;67260;53.130;17.982;2024-03-02T01:14:01;100667.17;;;6.89;89.93
77013;BME280;67260;53.130;17.982;2024-03-02T01:16:30;100659.54;;;6.86;90.06
77013;BME280;67260;53.130;17.982;2024-03-02T01:18:59;100657.56;;;6.85;90.12
77013;BME280;67260;53.130;17.982;2024-03-02T01:21:46;100652.60;;;6.84;90.07
77013;BME280;67260;53.130;17.982;2024-03-02T01:24:16;100649.85;;;6.82;90.35
77013;BME280;67260;53.130;17.982;2024-03-02T01:26:47;100646.17;;;6.80;90.41
77013;BME280;67260;53.130;17.982;2024-03-02T01:29:25;100647.00;;;6.78;90.59
77013;BME280;67260;53.130;17.982;2024-03-02T01:32:17;100648.27;;;6.76;90.64
77013;BME280;67260;53.130;17.982;2024-03-02T01:34:53;100644.23;;;6.75;90.79
77013;BME280;67260;53.130;17.982;2024-03-02T01:37:29;100633.70;;;6.73;90.94
77013;BME280;67260;53.130;17.982;2024-03-02T01:39:55;100626.41;;;6.72;90.52
77013;BME280;67260;53.130;17.982;2024-03-02T01:42:32;100629.65;;;6.72;90.56
77013;BME280;67260;53.130;17.982;2024-03-02T01:45:49;100634.36;;;6.72;90.59
77013;BME280;67260;53.130;17.982;2024-03-02T01:48:47;100639.27;;;6.71;90.96
77013;BME280;67260;53.130;17.982;2024-03-02T01:51:20;100636.17;;;6.70;90.45
77013;BME280;67260;53.130;17.982;2024-03-02T01:54:35;100637.20;;;6.71;90.70
77013;BME280;67260;53.130;17.982;2024-03-02T01:57:27;100629.89;;;6.71;90.55
77013;BME280;67260;53.130;17.982;2024-03-02T02:04:11;100630.08;;;6.67;90.56
77013;BME280;67260;53.130;17.982;2024-03-02T02:06:44;100632.90;;;6.65;90.60
77013;BME280;67260;53.130;17.982;2024-03-02T02:09:32;100627.61;;;6.63;91.00
77013;BME280;67260;53.130;17.982;2024-03-02T02:12:06;100625.60;;;6.60;90.77
77013;BME280;67260;53.130;17.982;2024-03-02T02:18:33;100626.42;;;6.51;90.90
77013;BME280;67260;53.130;17.982;2024-03-02T02:25:12;100624.11;;;6.46;90.85
77013;BME280;67260;53.130;17.982;2024-03-02T02:27:40;100628.62;;;6.44;91.14
77013;BME280;67260;53.130;17.982;2024-03-02T02:30:36;100626.93;;;6.41;91.23
77013;BME280;67260;53.130;17.982;2024-03-02T02:34:16;100628.89;;;6.37;91.25
77013;BME280;67260;53.130;17.982;2024-03-02T02:36:46;100630.86;;;6.35;91.46
77013;BME280;67260;53.130;17.982;2024-03-02T02:43:00;100623.69;;;6.31;91.32
77013;BME280;67260;53.130;17.982;2024-03-02T02:46:09;100618.84;;;6.27;91.23
77013;BME280;67260;53.130;17.982;2024-03-02T02:52:10;100626.40;;;6.19;91.40
77013;BME280;67260;53.130;17.982;2024-03-02T02:54:43;100626.29;;;6.18;91.34
77013;BME280;67260;53.130;17.982;2024-03-02T03:00:29;100627.98;;;6.12;91.65
77013;BME280;67260;53.130;17.982;2024-03-02T03:03:08;100629.86;;;6.10;91.91
77013;BME280;67260;53.130;17.982;2024-03-02T03:05:46;100624.58;;;6.07;91.66
77013;BME280;67260;53.130;17.982;2024-03-02T03:08:46;100622.46;;;6.04;91.77
77013;BME280;67260;53.130;17.982;2024-03-02T03:11:31;100628.83;;;6.01;91.70
77013;BME280;67260;53.130;17.982;2024-03-02T03:14:19;100626.60;;;5.98;91.89
77013;BME280;67260;53.130;17.982;2024-03-02T03:16:58;100631.23;;;5.97;91.68
77013;BME280;67260;53.130;17.982;2024-03-02T03:19:25;100632.10;;;5.95;91.62
77013;BME280;67260;53.130;17.982;2024-03-02T03:21:52;100638.46;;;5.95;91.96
77013;BME280;67260;53.130;17.982;2024-03-02T03:24:19;100631.54;;;5.93;91.88
77013;BME280;67260;53.130;17.982;2024-03-02T03:26:48;100629.37;;;5.92;91.57
77013;BME280;67260;53.130;17.982;2024-03-02T03:29:17;100628.01;;;5.93;91.80
77013;BME280;67260;53.130;17.982;2024-03-02T03:37:38;100625.23;;;6.00;91.54
77013;BME280;67260;53.130;17.982;2024-03-02T03:40:10;100619.95;;;6.01;91.78
77013;BME280;67260;53.130;17.982;2024-03-02T03:42:40;100619.64;;;6.03;91.62
77013;BME280;67260;53.130;17.982;2024-03-02T03:45:34;100618.73;;;6.04;91.26
77013;BME280;67260;53.130;17.982;2024-03-02T03:48:08;100615.03;;;6.06;91.20
77013;BME280;67260;53.130;17.982;2024-03-02T03:50:35;100611.77;;;6.07;91.25
77013;BME280;67260;53.130;17.982;2024-03-02T03:53:05;100615.95;;;6.07;91.21
77013;BME280;67260;53.130;17.982;2024-03-02T03:55:32;100616.06;;;6.07;91.22
77013;BME280;67260;53.130;17.982;2024-03-02T03:57:59;100613.40;;;6.08;91.10
77013;BME280;67260;53.130;17.982;2024-03-02T04:00:30;100613.65;;;6.08;91.10
77013;BME280;67260;53.130;17.982;2024-03-02T04:03:23;100610.90;;;6.09;90.90
77013;BME280;67260;53.130;17.982;2024-03-02T04:06:09;100608.65;;;6.10;91.03
77013;BME280;67260;53.130;17.982;2024-03-02T04:09:13;100602.55;;;6.12;90.72
77013;BME280;67260;53.130;17.982;2024-03-02T04:11:40;100600.51;;;6.14;90.66
77013;BME280;67260;53.130;17.982;2024-03-02T04:14:21;100604.02;;;6.16;90.61
77013;BME280;67260;53.130;17.982;2024-03-02T04:16:48;100597.98;;;6.16;90.60
77013;BME280;67260;53.130;17.982;2024-03-02T04:19:18;100600.95;;;6.16;90.46
77013;BME280;67260;53.130;17.982;2024-03-02T04:21:48;100600.58;;;6.16;90.62
77013;BME280;67260;53.130;17.982;2024-03-02T04:24:16;100596.23;;;6.16;90.44
77013;BME280;67260;53.130;17.982;2024-03-02T04:26:49;100593.73;;;6.16;90.32
77013;BME280;67260;53.130;17.982;2024-03-02T04:29:22;100593.57;;;6.16;90.59
77013;BME280;67260;53.130;17.982;2024-03-02T04:31:49;100596.16;;;6.19;90.46
77013;BME280;67260;53.130;17.982;2024-03-02T04:34:19;100593.73;;;6.19;90.22
77013;BME280;67260;53.130;17.982;2024-03-02T04:41:07;100597.74;;;6.16;90.16
77013;BME280;67260;53.130;17.982;2024-03-02T04:43:51;100589.09;;;6.15;90.25
77013;BME280;67260;53.130;17.982;2024-03-02T04:46:36;100600.89;;;6.15;90.41
77013;BME280;67260;53.130;17.982;2024-03-02T04:49:11;100599.67;;;6.15;90.19
77013;BME280;67260;53.130;17.982;2024-03-02T04:51:52;100602.31;;;6.15;90.11
77013;BME280;67260;53.130;17.982;2024-03-02T04:54:19;100608.73;;;6.16;90.08
77013;BME280;67260;53.130;17.982;2024-03-02T04:57:12;100620.98;;;6.13;90.12
77013;BME280;67260;53.130;17.982;2024-03-02T05:00:04;100625.06;;;6.11;90.04
77013;BME280;67260;53.130;17.982;2024-03-02T05:03:40;100624.81;;;6.11;90.02
77013;BME280;67260;53.130;17.982;2024-03-02T05:06:21;100628.09;;;6.11;90.11
77013;BME280;67260;53.130;17.982;2024-03-02T05:08:58;100620.05;;;6.11;90.09
77013;BME280;67260;53.130;17.982;2024-03-02T05:11:36;100628.37;;;6.10;89.96
77013;BME280;67260;53.130;17.982;2024-03-02T05:14:17;100628.94;;;6.10;90.32
77013;BME280;67260;53.130;17.982;2024-03-02T05:16:45;100631.77;;;6.10;90.21
77013;BME280;67260;53.130;17.982;2024-03-02T05:19:13;100627.03;;;6.13;89.98
77013;BME280;67260;53.130;17.982;2024-03-02T05:21:43;100640.45;;;6.15;90.05
77013;BME280;67260;53.130;17.982;2024-03-02T05:24:55;100644.48;;;6.15;89.94
77013;BME280;67260;53.130;17.982;2024-03-02T05:27:39;100640.85;;;6.15;89.93
77013;BME280;67260;53.130;17.982;2024-03-02T05:30:07;100638.09;;;6.14;89.91
77013;BME280;67260;53.130;17.982;2024-03-02T05:32:34;100633.04;;;6.15;89.99
77013;BME280;67260;53.130;17.982;2024-03-02T05:35:08;100637.84;;;6.16;89.86
77013;BME280;67260;53.130;17.982;2024-03-02T05:37:44;100644.49;;;6.17;90.11
77013;BME280;67260;53.130;17.982;2024-03-02T05:40:27;100642.58;;;6.17;90.02
77013;BME280;67260;53.130;17.982;2024-03-02T05:43:00;100637.48;;;6.17;89.99
77013;BME280;67260;53.130;17.982;2024-03-02T05:45:41;100639.39;;;6.17;89.86
77013;BME280;67260;53.130;17.982;2024-03-02T05:48:08;100651.52;;;6.17;89.93
77013;BME280;67260;53.130;17.982;2024-03-02T05:50:48;100652.59;;;6.18;90.06
77013;BME280;67260;53.130;17.982;2024-03-02T05:53:15;100654.47;;;6.18;89.85
77013;BME280;67260;53.130;17.982;2024-03-02T05:55:45;100657.92;;;6.19;89.84
77013;BME280;67260;53.130;17.982;2024-03-02T05:58:14;100667.14;;;6.20;89.81
77013;BME280;67260;53.130;17.982;2024-03-02T06:00:56;100667.80;;;6.20;89.80
77013;BME280;67260;53.130;17.982;2024-03-02T06:03:44;100670.98;;;6.22;89.78
77013;BME280;67260;53.130;17.982;2024-03-02T06:10:29;100674.77;;;6.22;89.79
77013;BME280;67260;53.130;17.982;2024-03-02T06:13:25;100677.58;;;6.24;89.93
77013;BME280;67260;53.130;17.982;2024-03-02T06:16:56;100680.23;;;6.28;89.96
77013;BME280;67260;53.130;17.982;2024-03-02T06:19:36;100682.52;;;6.30;89.92
77013;BME280;67260;53.130;17.982;2024-03-02T06:25:45;100682.63;;;6.33;89.66
77013;BME280;67260;53.130;17.982;2024-03-02T06:28:25;100678.83;;;6.37;89.78
77013;BME280;67260;53.130;17.982;2024-03-02T06:31:19;100678.17;;;6.40;89.67
77013;BME280;67260;53.130;17.982;2024-03-02T06:33:53;100677.30;;;6.44;89.60
77013;BME280;67260;53.130;17.982;2024-03-02T06:36:39;100679.74;;;6.47;89.51
77013;BME280;67260;53.130;17.982;2024-03-02T06:39:54;100685.90;;;6.49;89.30
77013;BME280;67260;53.130;17.982;2024-03-02T06:46:04;100681.24;;;6.55;89.38
77013;BME280;67260;53.130;17.982;2024-03-02T06:48:36;100677.74;;;6.58;89.27
77013;BME280;67260;53.130;17.982;2024-03-02T06:51:08;100676.48;;;6.60;89.09
77013;BME280;67260;53.130;17.982;2024-03-02T06:53:41;100672.84;;;6.64;89.03
77013;BME280;67260;53.130;17.982;2024-03-02T06:57:06;100669.86;;;6.69;89.00
77013;BME280;67260;53.130;17.982;2024-03-02T07:04:32;100657.77;;;6.93;88.25
77013;BME280;67260;53.130;17.982;2024-03-02T07:07:00;100660.34;;;7.02;88.33
77013;BME280;67260;53.130;17.982;2024-03-02T07:09:46;100665.75;;;7.07;88.03
77013;BME280;67260;53.130;17.982;2024-03-02T07:16:23;100682.61;;;7.11;87.79
77013;BME280;67260;53.130;17.982;2024-03-02T07:22:50;100693.99;;;7.16;87.48
77013;BME280;67260;53.130;17.982;2024-03-02T07:25:18;100697.36;;;7.19;87.33
77013;BME280;67260;53.130;17.982;2024-03-02T07:28:02;100692.25;;;7.28;87.23
77013;BME280;67260;53.130;17.982;2024-03-02T07:35:23;100681.15;;;7.59;86.82
77013;BME280;67260;53.130;17.982;2024-03-02T07:38:18;100686.77;;;7.76;86.04
77013;BME280;67260;53.130;17.982;2024-03-02T07:41:15;100696.82;;;7.93;86.13
77013;BME280;67260;53.130;17.982;2024-03-02T07:50:02;100692.52;;;9.05;83.82
77013;BME280;67260;53.130;17.982;2024-03-02T07:52:33;100692.50;;;9.71;81.75
77013;BME280;67260;53.130;17.982;2024-03-02T07:55:00;100699.69;;;10.39;78.39
77013;BME280;67260;53.130;17.982;2024-03-02T07:57:26;100698.95;;;11.40;75.91
77013;BME280;67260;53.130;17.982;2024-03-02T07:59:53;100689.66;;;12.74;72.61
77013;BME280;67260;53.130;17.982;2024-03-02T08:02:20;100686.40;;;14.24;70.32
77013;BME280;67260;53.130;17.982;2024-03-02T08:04:47;100690.80;;;15.39;65.64
77013;BME280;67260;53.130;17.982;2024-03-02T08:07:14;100690.23;;;16.24;64.98
77013;BME280;67260;53.130;17.982;2024-03-02T08:09:44;100691.08;;;17.08;62.52
77013;BME280;67260;53.130;17.982;2024-03-02T08:12:11;100695.63;;;17.65;60.84
77013;BME280;67260;53.130;17.982;2024-03-02T08:14:38;100706.58;;;18.17;59.63
77013;BME280;67260;53.130;17.982;2024-03-02T08:17:05;100709.39;;;18.48;57.37
77013;BME280;67260;53.130;17.982;2024-03-02T08:19:36;100700.91;;;18.29;55.79
77013;BME280;67260;53.130;17.982;2024-03-02T08:22:03;100698.95;;;17.98;56.61
77013;BME280;67260;53.130;17.982;2024-03-02T08:24:30;100698.63;;;17.75;59.98
77013;BME280;67260;53.130;17.982;2024-03-02T08:26:59;100699.40;;;18.45;58.48
77013;BME280;67260;53.130;17.982;2024-03-02T08:29:26;100706.59;;;19.24;54.60
77013;BME280;67260;53.130;17.982;2024-03-02T08:31:53;100711.59;;;19.49;55.89
77013;BME280;67260;53.130;17.982;2024-03-02T08:34:20;100711.91;;;19.81;55.20
77013;BME280;67260;53.130;17.982;2024-03-02T08:36:47;100709.78;;;20.58;53.46
77013;BME280;67260;53.130;17.982;2024-03-02T08:39:14;100704.34;;;21.21;51.45
77013;BME280;67260;53.130;17.982;2024-03-02T08:41:46;100705.99;;;21.80;50.37
77013;BME280;67260;53.130;17.982;2024-03-02T08:44:21;100699.38;;;21.75;48.05
77013;BME280;67260;53.130;17.982;2024-03-02T08:46:51;100696.05;;;21.40;49.00
77013;BME280;67260;53.130;17.982;2024-03-02T08:49:27;100693.16;;;21.43;47.14
77013;BME280;67260;53.130;17.982;2024-03-02T08:52:01;100693.60;;;21.87;47.52
77013;BME280;67260;53.130;17.982;2024-03-02T08:54:28;100696.35;;;22.12;47.00
77013;BME280;67260;53.130;17.982;2024-03-02T08:56:55;100701.43;;;22.25;46.01
77013;BME280;67260;53.130;17.982;2024-03-02T08:59:21;100705.59;;;21.90;46.59
77013;BME280;67260;53.130;17.982;2024-03-02T09:01:51;100711.35;;;20.64;47.29
77013;BME280;67260;53.130;17.982;2024-03-02T09:04:19;100720.32;;;19.12;48.51
77013;BME280;67260;53.130;17.982;2024-03-02T09:06:46;100724.94;;;17.90;50.29
77013;BME280;67260;53.130;17.982;2024-03-02T09:09:16;100718.39;;;17.19;51.62
77013;BME280;67260;53.130;17.982;2024-03-02T09:11:42;100717.61;;;16.88;52.29
77013;BME280;67260;53.130;17.982;2024-03-02T09:14:11;100715.96;;;17.01;52.47
77013;BME280;67260;53.130;17.982;2024-03-02T09:16:38;100725.11;;;16.83;53.47
77013;BME280;67260;53.130;17.982;2024-03-02T09:19:04;100728.48;;;16.53;53.53
77013;BME280;67260;53.130;17.982;2024-03-02T09:21:31;100728.91;;;16.31;53.96
77013;BME280;67260;53.130;17.982;2024-03-02T09:23:59;100726.05;;;16.63;53.61
77013;BME280;67260;53.130;17.982;2024-03-02T09:26:26;100719.67;;;17.33;51.80
77013;BME280;67260;53.130;17.982;2024-03-02T09:28:54;100720.88;;;17.86;51.67
77013;BME280;67260;53.130;17.982;2024-03-02T09:31:21;100719.35;;;18.97;50.37
77013;BME280;67260;53.130;17.982;2024-03-02T09:33:49;100717.72;;;19.67;47.70
77013;BME280;67260;53.130;17.982;2024-03-02T09:36:17;100726.73;;;19.69;46.11
77013;BME280;67260;53.130;17.982;2024-03-02T09:38:45;100726.81;;;19.27;48.03
77013;BME280;67260;53.130;17.982;2024-03-02T09:41:12;100712.77;;;19.94;47.55
77013;BME280;67260;53.130;17.982;2024-03-02T09:43:40;100710.39;;;19.74;46.49
77013;BME280;67260;53.130;17.982;2024-03-02T09:46:09;100720.92;;;19.40;47.65
77013;BME280;67260;53.130;17.982;2024-03-02T09:48:38;100721.05;;;19.16;46.70
77013;BME280;67260;53.130;17.982;2024-03-02T09:51:05;100720.89;;;18.91;47.79
77013;BME280;67260;53.130;17.982;2024-03-02T09:53:33;100726.36;;;19.54;45.75
77013;BME280;67260;53.130;17.982;2024-03-02T09:56:00;100718.72;;;20.09;45.44
77013;BME280;67260;53.130;17.982;2024-03-02T09:58:28;100727.02;;;20.74;45.08
77013;BME280;67260;53.130;17.982;2024-03-02T10:00:55;100728.13;;;21.18;43.01
77013;BME280;67260;53.130;17.982;2024-03-02T10:03:25;100731.88;;;20.78;43.42
77013;BME280;67260;53.130;17.982;2024-03-02T10:05:53;100733.71;;;20.00;43.80
77013;BME280;67260;53.130;17.982;2024-03-02T10:08:50;100732.54;;;18.95;45.15
77013;BME280;67260;53.130;17.982;2024-03-02T10:12:30;100731.73;;;19.18;45.31
77013;BME280;67260;53.130;17.982;2024-03-02T10:15:03;100724.50;;;19.55;45.16
77013;BME280;67260;53.130;17.982;2024-03-02T10:17:34;100723.45;;;19.37;45.55
77013;BME280;67260;53.130;17.982;2024-03-02T10:20:22;100728.79;;;19.40;45.10
77013;BME280;67260;53.130;17.982;2024-03-02T10:23:12;100727.30;;;19.03;45.02
77013;BME280;67260;53.130;17.982;2024-03-02T10:25:43;100721.14;;;19.10;45.24
77013;BME280;67260;53.130;17.982;2024-03-02T10:28:18;100719.71;;;19.75;44.50
77013;BME280;67260;53.130;17.982;2024-03-02T10:30:50;100714.41;;;20.46;43.06
77013;BME280;67260;53.130;17.982;2024-03-02T10:33:49;100715.97;;;20.48;44.13
77013;BME280;67260;53.130;17.982;2024-03-02T10:36:28;100714.73;;;21.02;42.59
77013;BME280;67260;53.130;17.982;2024-03-02T10:38:58;100710.98;;;21.84;41.92
77013;BME280;67260;53.130;17.982;2024-03-02T10:41:35;100701.65;;;22.48;40.63
77013;BME280;67260;53.130;17.982;2024-03-02T10:47:19;100702.39;;;22.75;39.33
77013;BME280;67260;53.130;17.982;2024-03-02T10:50:28;100701.63;;;22.12;39.40
77013;BME280;67260;53.130;17.982;2024-03-02T10:53:34;100704.64;;;20.65;41.66
77013;BME280;67260;53.130;17.982;2024-03-02T10:56:44;100694.02;;;19.99;43.16
77013;BME280;67260;53.130;17.982;2024-03-02T11:02:00;100685.01;;;18.97;45.09
77013;BME280;67260;53.130;17.982;2024-03-02T11:04:31;100696.52;;;18.38;45.19
77013;BME280;67260;53.130;17.982;2024-03-02T11:07:02;100694.68;;;17.82;46.33
77013;BME280;67260;53.130;17.982;2024-03-02T11:09:35;100694.14;;;17.45;47.46
77013;BME280;67260;53.130;17.982;2024-03-02T11:15:17;100687.55;;;17.04;48.83
77013;BME280;67260;53.130;17.982;2024-03-02T11:17:52;100693.34;;;16.87;49.24
77013;BME280;67260;53.130;17.982;2024-03-02T11:35:26;100685.11;;;15.95;52.23
77013;BME280;67260;53.130;17.982;2024-03-02T11:37:52;100682.10;;;15.87;52.69
77013;BME280;67260;53.130;17.982;2024-03-02T11:40:24;100683.96;;;15.84;52.94
77013;BME280;67260;53.130;17.982;2024-03-02T11:43:20;100689.50;;;15.79;52.97
77013;BME280;67260;53.130;17.982;2024-03-02T11:46:05;100689.05;;;15.65;53.14
77013;BME280;67260;53.130;17.982;2024-03-02T11:48:48;100690.98;;;15.54;53.73
77013;BME280;67260;53.130;17.982;2024-03-02T11:51:19;100689.84;;;15.53;53.98
77013;BME280;67260;53.130;17.982;2024-03-02T11:53:47;100695.33;;;15.51;54.08
77013;BME280;67260;53.130;17.982;2024-03-02T11:56:15;100687.42;;;15.36;54.46
77013;BME280;67260;53.130;17.982;2024-03-02T11:58:44;100686.16;;;15.18;54.83
77013;BME280;67260;53.130;17.982;2024-03-02T12:01:11;100689.65;;;15.10;55.29
77013;BME280;67260;53.130;17.982;2024-03-02T12:03:55;100694.20;;;14.97;55.44
77013;BME280;67260;53.130;17.982;2024-03-02T12:06:30;100690.77;;;14.84;55.82
77013;BME280;67260;53.130;17.982;2024-03-02T12:08:58;100682.88;;;14.78;56.13
77013;BME280;67260;53.130;17.982;2024-03-02T12:11:25;100686.63;;;14.73;56.27
77013;BME280;67260;53.130;17.982;2024-03-02T12:13:53;100686.84;;;14.63;56.43
77013;BME280;67260;53.130;17.982;2024-03-02T12:16:25;100683.30;;;14.52;56.76
77013;BME280;67260;53.130;17.982;2024-03-02T12:18:52;100682.98;;;14.39;57.12
77013;BME280;67260;53.130;17.982;2024-03-02T12:21:21;100681.76;;;14.23;57.42
77013;BME280;67260;53.130;17.982;2024-03-02T12:23:47;100680.40;;;14.16;57.91
77013;BME280;67260;53.130;17.982;2024-03-02T12:26:22;100678.83;;;14.06;58.20
77013;BME280;67260;53.130;17.982;2024-03-02T12:28:50;100682.75;;;14.00;58.28
77013;BME280;67260;53.130;17.982;2024-03-02T12:31:18;100679.40;;;13.98;58.45
77013;BME280;67260;53.130;17.982;2024-03-02T12:33:46;100674.11;;;14.05;58.49
77013;BME280;67260;53.130;17.982;2024-03-02T12:36:13;100672.73;;;14.15;58.54
77013;BME280;67260;53.130;17.982;2024-03-02T12:38:44;100676.85;;;14.26;58.27
77013;BME280;67260;53.130;17.982;2024-03-02T12:41:14;100673.72;;;14.42;58.09
77013;BME280;67260;53.130;17.982;2024-03-02T12:43:42;100667.73;;;14.51;57.81
77013;BME280;67260;53.130;17.982;2024-03-02T12:46:11;100666.77;;;14.54;57.76
77013;BME280;67260;53.130;17.982;2024-03-02T12:57:42;100667.36;;;14.63;57.77
77013;BME280;67260;53.130;17.982;2024-03-02T13:00:10;100669.20;;;14.63;58.02
77013;BME280;67260;53.130;17.982;2024-03-02T13:02:41;100667.80;;;14.65;57.91
77013;BME280;67260;53.130;17.982;2024-03-02T13:05:08;100670.45;;;14.64;57.80
77013;BME280;67260;53.130;17.982;2024-03-02T13:08:06;100668.78;;;14.64;58.08
77013;BME280;67260;53.130;17.982;2024-03-02T13:10:34;100671.16;;;14.60;57.71
77013;BME280;67260;53.130;17.982;2024-03-02T13:13:01;100673.13;;;14.49;58.25
77013;BME280;67260;53.130;17.982;2024-03-02T13:15:28;100670.63;;;14.32;58.30
77013;BME280;67260;53.130;17.982;2024-03-02T13:17:59;100672.05;;;14.11;58.76
77013;BME280;67260;53.130;17.982;2024-03-02T13:20:33;100674.23;;;13.95;59.09
77013;BME280;67260;53.130;17.982;2024-03-02T13:23:06;100668.77;;;13.83;59.47
77013;BME280;67260;53.130;17.982;2024-03-02T13:25:36;100662.42;;;13.75;59.72
77013;BME280;67260;53.130;17.982;2024-03-02T13:28:03;100662.15;;;13.75;59.87
77013;BME280;67260;53.130;17.982;2024-03-02T13:30:36;100664.77;;;13.75;59.80
77013;BME280;67260;53.130;17.982;2024-03-02T13:33:03;100668.91;;;13.79;60.24
77013;BME280;67260;53.130;17.982;2024-03-02T13:35:31;100663.23;;;13.84;60.10
77013;BME280;67260;53.130;17.982;2024-03-02T13:38:05;100665.04;;;13.90;59.86
77013;BME280;67260;53.130;17.982;2024-03-02T13:40:42;100671.00;;;13.87;59.71
77013;BME280;67260;53.130;17.982;2024-03-02T13:43:08;100667.98;;;13.88;59.67
77013;BME280;67260;53.130;17.982;2024-03-02T13:45:37;100674.09;;;13.91;59.55
77013;BME280;67260;53.130;17.982;2024-03-02T13:48:07;100672.64;;;13.95;59.54
77013;BME280;67260;53.130;17.982;2024-03-02T13:50:34;100678.26;;;13.93;59.54
77013;BME280;67260;53.130;17.982;2024-03-02T13:53:09;100678.90;;;13.89;59.69
77013;BME280;67260;53.130;17.982;2024-03-02T13:55:37;100677.58;;;13.87;59.72
77013;BME280;67260;53.130;17.982;2024-03-02T13:58:36;100679.06;;;13.87;59.80
77013;BME280;67260;53.130;17.982;2024-03-02T14:01:11;100675.31;;;13.87;60.28
77013;BME280;67260;53.130;17.982;2024-03-02T14:06:46;100675.52;;;13.93;60.15
77013;BME280;67260;53.130;17.982;2024-03-02T14:09:17;100678.95;;;13.93;60.18
77013;BME280;67260;53.130;17.982;2024-03-02T14:11:56;100678.67;;;13.95;60.31
77013;BME280;67260;53.130;17.982;2024-03-02T14:14:23;100683.97;;;13.93;59.94
77013;BME280;67260;53.130;17.982;2024-03-02T14:17:04;100684.80;;;13.84;60.17
77013;BME280;67260;53.130;17.982;2024-03-02T14:19:32;100681.56;;;13.76;60.51
77013;BME280;67260;53.130;17.982;2024-03-02T14:21:59;100675.38;;;13.72;60.93
77013;BME280;67260;53.130;17.982;2024-03-02T14:24:26;100677.36;;;13.68;60.90
77013;BME280;67260;53.130;17.982;2024-03-02T14:27:00;100679.11;;;13.62;61.20
77013;BME280;67260;53.130;17.982;2024-03-02T14:29:31;100677.64;;;13.52;61.60
77013;BME280;67260;53.130;17.982;2024-03-02T14:31:59;100683.64;;;13.38;61.80
77013;BME280;67260;53.130;17.982;2024-03-02T14:34:26;100685.02;;;13.23;61.93
77013;BME280;67260;53.130;17.982;2024-03-02T14:36:53;100681.14;;;13.07;62.23
77013;BME280;67260;53.130;17.982;2024-03-02T14:39:20;100680.42;;;12.91;62.68
77013;BME280;67260;53.130;17.982;2024-03-02T14:41:53;100685.58;;;12.78;62.90
77013;BME280;67260;53.130;17.982;2024-03-02T14:44:26;100691.72;;;12.62;63.11
77013;BME280;67260;53.130;17.982;2024-03-02T14:47:28;100692.61;;;12.45;63.67
77013;BME280;67260;53.130;17.982;2024-03-02T14:49:58;100693.86;;;12.34;64.00
77013;BME280;67260;53.130;17.982;2024-03-02T14:52:33;100688.66;;;12.24;64.24
77013;BME280;67260;53.130;17.982;2024-03-02T14:55:02;100686.02;;;12.17;64.55
77013;BME280;67260;53.130;17.982;2024-03-02T14:57:34;100685.72;;;12.08;64.85
77013;BME280;67260;53.130;17.982;2024-03-02T15:00:01;100685.40;;;11.98;65.21
77013;BME280;67260;53.130;17.982;2024-03-02T15:02:28;100686.33;;;11.87;65.41
77013;BME280;67260;53.130;17.982;2024-03-02T15:04:58;100686.64;;;11.79;65.88
77013;BME280;67260;53.130;17.982;2024-03-02T15:07:31;100684.54;;;11.70;66.07
77013;BME280;67260;53.130;17.982;2024-03-02T15:10:01;100686.10;;;11.62;66.50
77013;BME280;67260;53.130;17.982;2024-03-02T15:12:55;100687.33;;;11.55;66.77
77013;BME280;67260;53.130;17.982;2024-03-02T15:15:51;100685.46;;;11.45;67.05
77013;BME280;67260;53.130;17.982;2024-03-02T15:18:22;100686.92;;;11.39;67.23
77013;BME280;67260;53.130;17.982;2024-03-02T15:20:48;100692.76;;;11.32;67.64
77013;BME280;67260;53.130;17.982;2024-03-02T15:23:44;100690.13;;;11.26;67.66
77013;BME280;67260;53.130;17.982;2024-03-02T15:26:29;100687.38;;;11.19;68.02
77013;BME280;67260;53.130;17.982;2024-03-02T15:28:56;100688.21;;;11.13;68.52
77013;BME280;67260;53.130;17.982;2024-03-02T15:31:27;100691.28;;;11.06;68.45
77013;BME280;67260;53.130;17.982;2024-03-02T15:33:54;100684.66;;;11.01;68.82
77013;BME280;67260;53.130;17.982;2024-03-02T15:36:38;100685.99;;;10.96;69.00
77013;BME280;67260;53.130;17.982;2024-03-02T15:39:21;100688.06;;;10.89;69.00
77013;BME280;67260;53.130;17.982;2024-03-02T15:41:51;100687.75;;;10.83;69.44
77013;BME280;67260;53.130;17.982;2024-03-02T15:44:18;100688.34;;;10.77;69.45
77013;BME280;67260;53.130;17.982;2024-03-02T15:46:47;100694.89;;;10.73;69.55
77013;BME280;67260;53.130;17.982;2024-03-02T15:49:14;100696.41;;;10.69;69.85
77013;BME280;67260;53.130;17.982;2024-03-02T15:51:51;100698.91;;;10.63;70.03